sensor_id;sensor_type;location;lat;lon;timestamp;P1;durP1;ratioP1;P2;durP2;ratioP2
22144;SDS011;11238;48.730;11.566;2023-01-28T00:01:47;19.20;;;9.98;;
22144;SDS011;11238;48.730;11.566;2023-01-28T00:04:13;16.50;;;9.40;;
22144;SDS011;11238;48.730;11.566;2023-01-28T00:06:39;17.88;;;10.18;;
22144;SDS011;11238;48.730;11.566;2023-01-28T00:09:05;17.90;;;10.15;;
22144;SDS011;11238;48.730;11.566;2023-01-28T00:11:31;17.63;;;10.00;;
22144;SDS011;11238;48.730;11.566;2023-01-28T00:13:58;18.05;;;10.85;;
22144;SDS011;11238;48.730;11.566;2023-01-28T00:16:24;18.48;;;9.60;;
22144;SDS011;11238;48.730;11.566;2023-01-28T00:18:52;18.23;;;10.10;;
22144;SDS011;11238;48.730;11.566;2023-01-28T00:21:18;19.48;;;10.25;;
22144;SDS011;11238;48.730;11.566;2023-01-28T00:23:46;20.00;;;10.82;;
22144;SDS011;11238;48.730;11.566;2023-01-28T00:26:16;18.55;;;10.77;;
22144;SDS011;11238;48.730;11.566;2023-01-28T00:28:43;18.15;;;9.95;;
22144;SDS011;11238;48.730;11.566;2023-01-28T00:31:12;19.08;;;10.43;;
22144;SDS011;11238;48.730;11.566;2023-01-28T00:33:42;17.48;;;9.90;;
22144;SDS011;11238;48.730;11.566;2023-01-28T00:36:09;18.27;;;10.63;;
22144;SDS011;11238;48.730;11.566;2023-01-28T00:38:35;17.65;;;10.20;;
22144;SDS011;11238;48.730;11.566;2023-01-28T00:41:11;17.25;;;10.20;;
22144;SDS011;11238;48.730;11.566;2023-01-28T00:43:39;17.05;;;10.02;;
22144;SDS011;11238;48.730;11.566;2023-01-28T00:46:08;17.50;;;10.00;;
22144;SDS011;11238;48.730;11.566;2023-01-28T00:48:36;17.35;;;10.15;;
22144;SDS011;11238;48.730;11.566;2023-01-28T00:51:04;17.40;;;10.20;;
22144;SDS011;11238;48.730;11.566;2023-01-28T00:53:31;19.50;;;10.50;;
22144;SDS011;11238;48.730;11.566;2023-01-28T00:55:59;16.42;;;9.73;;
22144;SDS011;11238;48.730;11.566;2023-01-28T00:58:25;17.52;;;9.43;;
22144;SDS011;11238;48.730;11.566;2023-01-28T01:00:51;19.55;;;10.07;;
22144;SDS011;11238;48.730;11.566;2023-01-28T01:03:17;17.77;;;10.13;;
22144;SDS011;11238;48.730;11.566;2023-01-28T01:05:43;17.00;;;10.18;;
22144;SDS011;11238;48.730;11.566;2023-01-28T01:08:10;17.58;;;10.25;;
22144;SDS011;11238;48.730;11.566;2023-01-28T01:10:36;16.50;;;10.15;;
22144;SDS011;11238;48.730;11.566;2023-01-28T01:13:05;18.27;;;9.63;;
22144;SDS011;11238;48.730;11.566;2023-01-28T01:15:31;17.98;;;10.13;;
22144;SDS011;11238;48.730;11.566;2023-01-28T01:17:58;18.85;;;10.00;;
22144;SDS011;11238;48.730;11.566;2023-01-28T01:20:25;17.02;;;9.77;;
22144;SDS011;11238;48.730;11.566;2023-01-28T01:22:52;18.52;;;10.25;;
22144;SDS011;11238;48.730;11.566;2023-01-28T01:25:19;19.17;;;9.98;;
22144;SDS011;11238;48.730;11.566;2023-01-28T01:27:49;17.75;;;10.60;;
22144;SDS011;11238;48.730;11.566;2023-01-28T01:30:16;17.95;;;10.05;;
22144;SDS011;11238;48.730;11.566;2023-01-28T01:32:42;18.75;;;10.07;;
22144;SDS011;11238;48.730;11.566;2023-01-28T01:35:08;17.70;;;10.02;;
22144;SDS011;11238;48.730;11.566;2023-01-28T01:37:37;16.10;;;9.85;;
22144;SDS011;11238;48.730;11.566;2023-01-28T01:40:04;18.13;;;9.93;;
22144;SDS011;11238;48.730;11.566;2023-01-28T01:42:31;17.90;;;9.90;;
22144;SDS011;11238;48.730;11.566;2023-01-28T01:47:41;16.05;;;9.25;;
22144;SDS011;11238;48.730;11.566;2023-01-28T01:50:17;16.02;;;9.88;;
22144;SDS011;11238;48.730;11.566;2023-01-28T01:52:59;16.40;;;9.10;;
22144;SDS011;11238;48.730;11.566;2023-01-28T01:55:42;18.27;;;9.73;;
22144;SDS011;11238;48.730;11.566;2023-01-28T01:58:12;15.20;;;9.77;;
22144;SDS011;11238;48.730;11.566;2023-01-28T02:00:41;15.80;;;9.32;;
22144;SDS011;11238;48.730;11.566;2023-01-28T02:03:07;18.73;;;10.07;;
22144;SDS011;11238;48.730;11.566;2023-01-28T02:05:34;17.05;;;9.70;;
22144;SDS011;11238;48.730;11.566;2023-01-28T02:08:01;16.38;;;9.65;;
22144;SDS011;11238;48.730;11.566;2023-01-28T02:11:04;15.00;;;9.38;;
22144;SDS011;11238;48.730;11.566;2023-01-28T02:13:34;15.23;;;9.05;;
22144;SDS011;11238;48.730;11.566;2023-01-28T02:16:04;17.25;;;9.15;;
22144;SDS011;11238;48.730;11.566;2023-01-28T02:18:31;13.35;;;8.95;;
22144;SDS011;11238;48.730;11.566;2023-01-28T02:26:52;16.58;;;9.38;;
22144;SDS011;11238;48.730;11.566;2023-01-28T02:29:42;15.57;;;8.82;;
22144;SDS011;11238;48.730;11.566;2023-01-28T02:32:23;15.02;;;9.38;;
22144;SDS011;11238;48.730;11.566;2023-01-28T02:38:29;15.35;;;9.05;;
22144;SDS011;11238;48.730;11.566;2023-01-28T02:41:03;17.02;;;9.00;;
22144;SDS011;11238;48.730;11.566;2023-01-28T02:43:35;15.02;;;9.00;;
22144;SDS011;11238;48.730;11.566;2023-01-28T02:49:38;15.55;;;9.38;;
22144;SDS011;11238;48.730;11.566;2023-01-28T02:57:24;14.60;;;8.88;;
22144;SDS011;11238;48.730;11.566;2023-01-28T03:00:14;14.38;;;8.75;;
22144;SDS011;11238;48.730;11.566;2023-01-28T03:02:52;16.35;;;8.93;;
22144;SDS011;11238;48.730;11.566;2023-01-28T03:07:46;15.30;;;9.27;;
22144;SDS011;11238;48.730;11.566;2023-01-28T03:10:14;15.30;;;9.35;;
22144;SDS011;11238;48.730;11.566;2023-01-28T03:12:44;12.65;;;8.88;;
22144;SDS011;11238;48.730;11.566;2023-01-28T03:15:45;14.00;;;9.20;;
22144;SDS011;11238;48.730;11.566;2023-01-28T03:18:38;16.02;;;9.85;;
22144;SDS011;11238;48.730;11.566;2023-01-28T03:21:30;13.50;;;8.70;;
22144;SDS011;11238;48.730;11.566;2023-01-28T03:24:21;18.38;;;9.77;;
22144;SDS011;11238;48.730;11.566;2023-01-28T03:27:27;14.52;;;8.40;;
22144;SDS011;11238;48.730;11.566;2023-01-28T03:30:24;14.60;;;8.60;;
22144;SDS011;11238;48.730;11.566;2023-01-28T03:33:25;14.70;;;9.25;;
22144;SDS011;11238;48.730;11.566;2023-01-28T03:36:11;13.60;;;8.77;;
22144;SDS011;11238;48.730;11.566;2023-01-28T03:38:56;15.50;;;9.27;;
22144;SDS011;11238;48.730;11.566;2023-01-28T03:41:23;15.82;;;9.07;;
22144;SDS011;11238;48.730;11.566;2023-01-28T03:43:53;15.07;;;8.52;;
22144;SDS011;11238;48.730;11.566;2023-01-28T03:46:20;14.40;;;9.23;;
22144;SDS011;11238;48.730;11.566;2023-01-28T03:48:46;16.20;;;9.77;;
22144;SDS011;11238;48.730;11.566;2023-01-28T03:51:13;16.13;;;9.38;;
22144;SDS011;11238;48.730;11.566;2023-01-28T03:53:40;17.10;;;10.30;;
22144;SDS011;11238;48.730;11.566;2023-01-28T03:56:06;18.50;;;10.63;;
22144;SDS011;11238;48.730;11.566;2023-01-28T03:58:32;19.63;;;10.73;;
22144;SDS011;11238;48.730;11.566;2023-01-28T04:01:17;16.33;;;10.00;;
22144;SDS011;11238;48.730;11.566;2023-01-28T04:03:44;15.57;;;9.55;;
22144;SDS011;11238;48.730;11.566;2023-01-28T04:06:13;17.58;;;10.57;;
22144;SDS011;11238;48.730;11.566;2023-01-28T04:09:19;17.63;;;10.18;;
22144;SDS011;11238;48.730;11.566;2023-01-28T04:11:53;15.18;;;9.88;;
22144;SDS011;11238;48.730;11.566;2023-01-28T04:14:24;16.73;;;10.65;;
22144;SDS011;11238;48.730;11.566;2023-01-28T04:17:03;16.33;;;10.15;;
22144;SDS011;11238;48.730;11.566;2023-01-28T04:19:31;16.20;;;10.57;;
22144;SDS011;11238;48.730;11.566;2023-01-28T04:22:05;18.30;;;10.80;;
22144;SDS011;11238;48.730;11.566;2023-01-28T04:24:34;19.77;;;11.43;;
22144;SDS011;11238;48.730;11.566;2023-01-28T04:27:00;18.17;;;10.63;;
22144;SDS011;11238;48.730;11.566;2023-01-28T04:29:25;16.73;;;10.63;;
22144;SDS011;11238;48.730;11.566;2023-01-28T04:31:55;18.05;;;10.15;;
22144;SDS011;11238;48.730;11.566;2023-01-28T04:34:43;17.23;;;10.50;;
22144;SDS011;11238;48.730;11.566;2023-01-28T04:37:32;17.40;;;11.05;;
22144;SDS011;11238;48.730;11.566;2023-01-28T04:40:22;17.65;;;10.30;;
22144;SDS011;11238;48.730;11.566;2023-01-28T04:42:56;17.88;;;10.40;;
22144;SDS011;11238;48.730;11.566;2023-01-28T04:45:46;21.00;;;10.20;;
22144;SDS011;11238;48.730;11.566;2023-01-28T04:51:19;17.80;;;10.63;;
22144;SDS011;11238;48.730;11.566;2023-01-28T04:54:01;20.77;;;11.48;;
22144;SDS011;11238;48.730;11.566;2023-01-28T04:56:30;17.88;;;10.52;;
22144;SDS011;11238;48.730;11.566;2023-01-28T04:58:56;18.52;;;11.52;;
22144;SDS011;11238;48.730;11.566;2023-01-28T05:01:22;16.85;;;10.52;;
22144;SDS011;11238;48.730;11.566;2023-01-28T05:03:49;19.95;;;11.70;;
22144;SDS011;11238;48.730;11.566;2023-01-28T05:06:34;18.63;;;10.77;;
22144;SDS011;11238;48.730;11.566;2023-01-28T05:09:06;18.98;;;11.90;;
22144;SDS011;11238;48.730;11.566;2023-01-28T05:11:32;17.48;;;10.88;;
22144;SDS011;11238;48.730;11.566;2023-01-28T05:14:01;18.45;;;11.43;;
22144;SDS011;11238;48.730;11.566;2023-01-28T05:16:34;20.63;;;12.02;;
22144;SDS011;11238;48.730;11.566;2023-01-28T05:19:02;19.13;;;11.35;;
22144;SDS011;11238;48.730;11.566;2023-01-28T05:21:33;19.52;;;11.57;;
22144;SDS011;11238;48.730;11.566;2023-01-28T05:24:03;17.05;;;11.25;;
22144;SDS011;11238;48.730;11.566;2023-01-28T05:26:29;18.27;;;10.90;;
22144;SDS011;11238;48.730;11.566;2023-01-28T05:28:55;16.23;;;10.57;;
22144;SDS011;11238;48.730;11.566;2023-01-28T05:31:22;20.55;;;11.23;;
22144;SDS011;11238;48.730;11.566;2023-01-28T05:33:48;17.13;;;11.25;;
22144;SDS011;11238;48.730;11.566;2023-01-28T05:36:18;21.02;;;11.68;;
22144;SDS011;11238;48.730;11.566;2023-01-28T05:38:44;20.60;;;11.50;;
22144;SDS011;11238;48.730;11.566;2023-01-28T05:41:10;19.85;;;11.15;;
22144;SDS011;11238;48.730;11.566;2023-01-28T05:43:36;18.25;;;10.90;;
22144;SDS011;11238;48.730;11.566;2023-01-28T05:46:15;21.02;;;11.82;;
22144;SDS011;11238;48.730;11.566;2023-01-28T05:49:00;17.48;;;10.93;;
22144;SDS011;11238;48.730;11.566;2023-01-28T05:51:44;18.23;;;11.77;;
22144;SDS011;11238;48.730;11.566;2023-01-28T05:54:15;18.85;;;10.88;;
22144;SDS011;11238;48.730;11.566;2023-01-28T05:56:42;18.25;;;11.52;;
22144;SDS011;11238;48.730;11.566;2023-01-28T05:59:09;17.45;;;10.45;;
22144;SDS011;11238;48.730;11.566;2023-01-28T06:01:37;18.88;;;10.95;;
22144;SDS011;11238;48.730;11.566;2023-01-28T06:04:02;16.85;;;10.73;;
22144;SDS011;11238;48.730;11.566;2023-01-28T06:06:29;19.98;;;11.45;;
22144;SDS011;11238;48.730;11.566;2023-01-28T06:08:55;17.60;;;10.27;;
22144;SDS011;11238;48.730;11.566;2023-01-28T06:11:25;16.33;;;10.80;;
22144;SDS011;11238;48.730;11.566;2023-01-28T06:13:55;17.85;;;10.23;;
22144;SDS011;11238;48.730;11.566;2023-01-28T06:16:43;16.30;;;10.48;;
22144;SDS011;11238;48.730;11.566;2023-01-28T06:19:09;16.80;;;10.68;;
22144;SDS011;11238;48.730;11.566;2023-01-28T06:21:35;16.73;;;10.35;;
22144;SDS011;11238;48.730;11.566;2023-01-28T06:24:00;17.13;;;10.88;;
22144;SDS011;11238;48.730;11.566;2023-01-28T06:26:28;16.38;;;10.50;;
22144;SDS011;11238;48.730;11.566;2023-01-28T06:28:54;15.32;;;10.35;;
22144;SDS011;11238;48.730;11.566;2023-01-28T06:31:20;17.65;;;10.55;;
22144;SDS011;11238;48.730;11.566;2023-01-28T06:33:46;16.88;;;10.43;;
22144;SDS011;11238;48.730;11.566;2023-01-28T06:36:12;16.13;;;9.68;;
22144;SDS011;11238;48.730;11.566;2023-01-28T06:38:38;16.58;;;10.18;;
22144;SDS011;11238;48.730;11.566;2023-01-28T06:41:04;15.30;;;10.40;;
22144;SDS011;11238;48.730;11.566;2023-01-28T06:43:30;18.83;;;10.35;;
22144;SDS011;11238;48.730;11.566;2023-01-28T06:45:56;15.20;;;9.93;;
22144;SDS011;11238;48.730;11.566;2023-01-28T06:48:23;17.55;;;10.82;;
22144;SDS011;11238;48.730;11.566;2023-01-28T06:50:49;16.63;;;10.30;;
22144;SDS011;11238;48.730;11.566;2023-01-28T06:53:15;17.00;;;10.15;;
22144;SDS011;11238;48.730;11.566;2023-01-28T06:55:42;17.13;;;10.43;;
22144;SDS011;11238;48.730;11.566;2023-01-28T06:58:07;16.80;;;10.10;;
22144;SDS011;11238;48.730;11.566;2023-01-28T07:00:33;16.60;;;9.68;;
22144;SDS011;11238;48.730;11.566;2023-01-28T07:02:59;16.20;;;10.38;;
22144;SDS011;11238;48.730;11.566;2023-01-28T07:05:26;16.52;;;10.15;;
22144;SDS011;11238;48.730;11.566;2023-01-28T07:07:52;18.73;;;10.35;;
22144;SDS011;11238;48.730;11.566;2023-01-28T07:10:18;15.68;;;9.98;;
22144;SDS011;11238;48.730;11.566;2023-01-28T07:12:43;16.00;;;10.35;;
22144;SDS011;11238;48.730;11.566;2023-01-28T07:15:10;16.00;;;10.35;;
22144;SDS011;11238;48.730;11.566;2023-01-28T07:17:39;18.05;;;10.50;;
22144;SDS011;11238;48.730;11.566;2023-01-28T07:20:06;16.80;;;10.25;;
22144;SDS011;11238;48.730;11.566;2023-01-28T07:22:33;17.02;;;9.90;;
22144;SDS011;11238;48.730;11.566;2023-01-28T07:24:58;15.52;;;9.73;;
22144;SDS011;11238;48.730;11.566;2023-01-28T07:27:25;14.80;;;9.73;;
22144;SDS011;11238;48.730;11.566;2023-01-28T07:29:51;18.85;;;10.60;;
22144;SDS011;11238;48.730;11.566;2023-01-28T07:32:17;17.13;;;10.18;;
22144;SDS011;11238;48.730;11.566;2023-01-28T07:34:43;16.83;;;10.10;;
22144;SDS011;11238;48.730;11.566;2023-01-28T07:37:09;16.67;;;10.45;;
22144;SDS011;11238;48.730;11.566;2023-01-28T07:39:35;16.65;;;10.18;;
22144;SDS011;11238;48.730;11.566;2023-01-28T07:42:01;16.42;;;10.63;;
22144;SDS011;11238;48.730;11.566;2023-01-28T07:44:45;18.80;;;10.80;;
22144;SDS011;11238;48.730;11.566;2023-01-28T07:47:11;17.73;;;10.38;;
22144;SDS011;11238;48.730;11.566;2023-01-28T07:49:37;16.23;;;10.30;;
22144;SDS011;11238;48.730;11.566;2023-01-28T07:52:06;17.10;;;10.55;;
22144;SDS011;11238;48.730;11.566;2023-01-28T07:54:32;23.30;;;11.70;;
22144;SDS011;11238;48.730;11.566;2023-01-28T07:56:58;19.67;;;11.27;;
22144;SDS011;11238;48.730;11.566;2023-01-28T07:59:25;18.02;;;11.23;;
22144;SDS011;11238;48.730;11.566;2023-01-28T08:01:50;17.80;;;11.45;;
22144;SDS011;11238;48.730;11.566;2023-01-28T08:04:18;18.55;;;11.70;;
22144;SDS011;11238;48.730;11.566;2023-01-28T08:06:44;20.63;;;11.82;;
22144;SDS011;11238;48.730;11.566;2023-01-28T08:09:10;18.35;;;11.35;;
22144;SDS011;11238;48.730;11.566;2023-01-28T08:11:37;19.02;;;11.52;;
22144;SDS011;11238;48.730;11.566;2023-01-28T08:14:03;17.23;;;10.85;;
22144;SDS011;11238;48.730;11.566;2023-01-28T08:16:29;17.73;;;11.00;;
22144;SDS011;11238;48.730;11.566;2023-01-28T08:18:55;20.98;;;11.65;;
22144;SDS011;11238;48.730;11.566;2023-01-28T08:21:21;20.38;;;11.65;;
22144;SDS011;11238;48.730;11.566;2023-01-28T08:23:48;19.48;;;12.00;;
22144;SDS011;11238;48.730;11.566;2023-01-28T08:26:14;18.70;;;11.63;;
22144;SDS011;11238;48.730;11.566;2023-01-28T08:28:39;19.63;;;11.75;;
22144;SDS011;11238;48.730;11.566;2023-01-28T08:31:05;20.50;;;11.80;;
22144;SDS011;11238;48.730;11.566;2023-01-28T08:33:31;17.50;;;10.95;;
22144;SDS011;11238;48.730;11.566;2023-01-28T08:35:57;17.50;;;10.77;;
22144;SDS011;11238;48.730;11.566;2023-01-28T08:38:26;18.48;;;11.13;;
22144;SDS011;11238;48.730;11.566;2023-01-28T08:40:51;19.48;;;11.75;;
22144;SDS011;11238;48.730;11.566;2023-01-28T08:43:20;21.50;;;12.95;;
22144;SDS011;11238;48.730;11.566;2023-01-28T08:45:46;22.95;;;11.90;;
22144;SDS011;11238;48.730;11.566;2023-01-28T08:48:14;20.52;;;12.27;;
22144;SDS011;11238;48.730;11.566;2023-01-28T08:50:42;22.83;;;12.25;;
22144;SDS011;11238;48.730;11.566;2023-01-28T08:53:12;18.15;;;11.65;;
22144;SDS011;11238;48.730;11.566;2023-01-28T08:55:40;20.35;;;11.93;;
22144;SDS011;11238;48.730;11.566;2023-01-28T08:58:10;17.55;;;10.52;;
22144;SDS011;11238;48.730;11.566;2023-01-28T09:00:37;18.05;;;11.13;;
22144;SDS011;11238;48.730;11.566;2023-01-28T09:03:03;16.95;;;11.10;;
22144;SDS011;11238;48.730;11.566;2023-01-28T09:05:30;23.73;;;14.10;;
22144;SDS011;11238;48.730;11.566;2023-01-28T09:08:05;27.15;;;14.77;;
22144;SDS011;11238;48.730;11.566;2023-01-28T09:10:33;28.55;;;15.35;;
22144;SDS011;11238;48.730;11.566;2023-01-28T09:13:03;17.40;;;10.48;;
22144;SDS011;11238;48.730;11.566;2023-01-28T09:15:30;19.33;;;11.52;;
22144;SDS011;11238;48.730;11.566;2023-01-28T09:17:57;17.85;;;10.68;;
22144;SDS011;11238;48.730;11.566;2023-01-28T09:20:24;19.35;;;11.18;;
22144;SDS011;11238;48.730;11.566;2023-01-28T09:22:50;20.63;;;11.07;;
22144;SDS011;11238;48.730;11.566;2023-01-28T09:25:16;16.58;;;10.65;;
22144;SDS011;11238;48.730;11.566;2023-01-28T09:27:42;16.65;;;10.07;;
22144;SDS011;11238;48.730;11.566;2023-01-28T09:30:08;17.63;;;10.07;;
22144;SDS011;11238;48.730;11.566;2023-01-28T09:32:35;17.27;;;11.00;;
22144;SDS011;11238;48.730;11.566;2023-01-28T09:35:00;18.40;;;10.73;;
22144;SDS011;11238;48.730;11.566;2023-01-28T09:37:29;16.92;;;10.45;;
22144;SDS011;11238;48.730;11.566;2023-01-28T09:39:55;17.80;;;10.65;;
22144;SDS011;11238;48.730;11.566;2023-01-28T09:42:25;19.50;;;10.95;;
22144;SDS011;11238;48.730;11.566;2023-01-28T09:45:15;19.90;;;10.98;;
22144;SDS011;11238;48.730;11.566;2023-01-28T09:47:51;17.58;;;10.73;;
22144;SDS011;11238;48.730;11.566;2023-01-28T09:50:27;17.83;;;10.38;;
22144;SDS011;11238;48.730;11.566;2023-01-28T09:53:27;17.83;;;11.15;;
22144;SDS011;11238;48.730;11.566;2023-01-28T09:56:04;18.02;;;10.52;;
22144;SDS011;11238;48.730;11.566;2023-01-28T09:58:37;18.20;;;10.55;;
22144;SDS011;11238;48.730;11.566;2023-01-28T10:06:18;20.37;;;11.23;;
22144;SDS011;11238;48.730;11.566;2023-01-28T10:09:13;16.35;;;9.77;;
22144;SDS011;11238;48.730;11.566;2023-01-28T10:11:50;16.85;;;9.90;;
22144;SDS011;11238;48.730;11.566;2023-01-28T10:18:02;18.02;;;10.40;;
22144;SDS011;11238;48.730;11.566;2023-01-28T10:20:35;17.90;;;10.82;;
22144;SDS011;11238;48.730;11.566;2023-01-28T10:26:15;16.30;;;10.23;;
22144;SDS011;11238;48.730;11.566;2023-01-28T10:28:52;16.83;;;10.32;;
22144;SDS011;11238;48.730;11.566;2023-01-28T10:31:21;19.65;;;10.95;;
22144;SDS011;11238;48.730;11.566;2023-01-28T10:33:48;18.63;;;10.43;;
22144;SDS011;11238;48.730;11.566;2023-01-28T10:36:14;17.92;;;10.85;;
22144;SDS011;11238;48.730;11.566;2023-01-28T10:38:42;18.55;;;10.98;;
22144;SDS011;11238;48.730;11.566;2023-01-28T10:41:08;18.42;;;11.05;;
22144;SDS011;11238;48.730;11.566;2023-01-28T10:43:38;20.58;;;11.60;;
22144;SDS011;11238;48.730;11.566;2023-01-28T10:48:39;23.10;;;12.35;;
22144;SDS011;11238;48.730;11.566;2023-01-28T10:51:29;23.55;;;12.73;;
22144;SDS011;11238;48.730;11.566;2023-01-28T10:54:03;23.25;;;12.80;;
22144;SDS011;11238;48.730;11.566;2023-01-28T10:56:43;22.48;;;12.73;;
22144;SDS011;11238;48.730;11.566;2023-01-28T10:59:20;25.88;;;12.82;;
22144;SDS011;11238;48.730;11.566;2023-01-28T11:04:31;22.30;;;12.40;;
22144;SDS011;11238;48.730;11.566;2023-01-28T11:07:02;22.55;;;12.98;;
22144;SDS011;11238;48.730;11.566;2023-01-28T11:09:30;21.30;;;11.75;;
22144;SDS011;11238;48.730;11.566;2023-01-28T11:11:57;25.90;;;11.98;;
22144;SDS011;11238;48.730;11.566;2023-01-28T11:14:34;23.75;;;13.02;;
22144;SDS011;11238;48.730;11.566;2023-01-28T11:17:00;23.90;;;12.80;;
22144;SDS011;11238;48.730;11.566;2023-01-28T11:19:28;22.55;;;12.52;;
22144;SDS011;11238;48.730;11.566;2023-01-28T11:21:59;21.60;;;12.47;;
22144;SDS011;11238;48.730;11.566;2023-01-28T11:24:27;20.35;;;12.63;;
22144;SDS011;11238;48.730;11.566;2023-01-28T11:26:56;21.92;;;12.23;;
22144;SDS011;11238;48.730;11.566;2023-01-28T11:29:32;21.50;;;13.13;;
22144;SDS011;11238;48.730;11.566;2023-01-28T11:32:03;23.63;;;13.43;;
22144;SDS011;11238;48.730;11.566;2023-01-28T11:34:32;24.77;;;13.68;;
22144;SDS011;11238;48.730;11.566;2023-01-28T11:37:08;21.58;;;12.43;;
22144;SDS011;11238;48.730;11.566;2023-01-28T11:39:38;25.63;;;13.48;;
22144;SDS011;11238;48.730;11.566;2023-01-28T11:42:12;20.98;;;12.40;;
22144;SDS011;11238;48.730;11.566;2023-01-28T11:44:43;24.90;;;13.80;;
22144;SDS011;11238;48.730;11.566;2023-01-28T11:47:29;25.25;;;14.45;;
22144;SDS011;11238;48.730;11.566;2023-01-28T11:50:21;26.00;;;14.35;;
22144;SDS011;11238;48.730;11.566;2023-01-28T11:53:12;29.23;;;14.23;;
22144;SDS011;11238;48.730;11.566;2023-01-28T11:59:01;26.40;;;14.68;;
22144;SDS011;11238;48.730;11.566;2023-01-28T12:04:32;26.33;;;13.55;;
22144;SDS011;11238;48.730;11.566;2023-01-28T12:09:55;24.10;;;13.80;;
22144;SDS011;11238;48.730;11.566;2023-01-28T12:18:03;27.30;;;14.65;;
22144;SDS011;11238;48.730;11.566;2023-01-28T12:20:45;25.58;;;14.27;;
22144;SDS011;11238;48.730;11.566;2023-01-28T12:26:02;23.85;;;12.63;;
22144;SDS011;11238;48.730;11.566;2023-01-28T12:32:22;18.98;;;11.30;;
22144;SDS011;11238;48.730;11.566;2023-01-28T12:34:47;20.50;;;11.68;;
22144;SDS011;11238;48.730;11.566;2023-01-28T12:41:10;20.35;;;11.85;;
22144;SDS011;11238;48.730;11.566;2023-01-28T12:46:43;21.60;;;11.98;;
22144;SDS011;11238;48.730;11.566;2023-01-28T12:49:21;23.95;;;12.90;;
22144;SDS011;11238;48.730;11.566;2023-01-28T12:55:17;19.67;;;11.60;;
22144;SDS011;11238;48.730;11.566;2023-01-28T12:58:19;21.75;;;12.27;;
22144;SDS011;11238;48.730;11.566;2023-01-28T13:00:53;21.58;;;12.05;;
22144;SDS011;11238;48.730;11.566;2023-01-28T13:07:46;19.48;;;11.25;;
22144;SDS011;11238;48.730;11.566;2023-01-28T13:11:01;24.60;;;12.52;;
22144;SDS011;11238;48.730;11.566;2023-01-28T13:13:35;18.30;;;11.90;;
22144;SDS011;11238;48.730;11.566;2023-01-28T13:16:04;18.48;;;11.27;;
22144;SDS011;11238;48.730;11.566;2023-01-28T13:21:27;19.20;;;12.00;;
22144;SDS011;11238;48.730;11.566;2023-01-28T13:24:29;18.83;;;11.65;;
22144;SDS011;11238;48.730;11.566;2023-01-28T13:27:10;20.15;;;11.40;;
22144;SDS011;11238;48.730;11.566;2023-01-28T13:29:58;19.00;;;11.18;;
22144;SDS011;11238;48.730;11.566;2023-01-28T13:33:04;22.73;;;12.20;;
22144;SDS011;11238;48.730;11.566;2023-01-28T13:35:40;21.88;;;11.73;;
22144;SDS011;11238;48.730;11.566;2023-01-28T13:38:21;21.63;;;12.48;;
22144;SDS011;11238;48.730;11.566;2023-01-28T13:40:57;20.27;;;12.23;;
22144;SDS011;11238;48.730;11.566;2023-01-28T13:46:28;20.00;;;12.07;;
22144;SDS011;11238;48.730;11.566;2023-01-28T13:49:03;20.85;;;12.45;;
22144;SDS011;11238;48.730;11.566;2023-01-28T13:51:36;22.23;;;12.38;;
22144;SDS011;11238;48.730;11.566;2023-01-28T13:54:14;23.80;;;13.35;;
22144;SDS011;11238;48.730;11.566;2023-01-28T14:11:41;20.33;;;11.77;;
22144;SDS011;11238;48.730;11.566;2023-01-28T14:18:14;20.48;;;11.15;;
22144;SDS011;11238;48.730;11.566;2023-01-28T14:20:43;20.73;;;11.98;;
22144;SDS011;11238;48.730;11.566;2023-01-28T14:23:15;18.85;;;11.68;;
22144;SDS011;11238;48.730;11.566;2023-01-28T14:28:22;25.83;;;12.60;;
22144;SDS011;11238;48.730;11.566;2023-01-28T14:31:13;21.15;;;12.35;;
22144;SDS011;11238;48.730;11.566;2023-01-28T14:33:46;19.65;;;12.27;;
22144;SDS011;11238;48.730;11.566;2023-01-28T14:36:12;20.85;;;12.05;;
22144;SDS011;11238;48.730;11.566;2023-01-28T14:38:51;23.33;;;13.25;;
22144;SDS011;11238;48.730;11.566;2023-01-28T14:41:21;20.02;;;12.50;;
22144;SDS011;11238;48.730;11.566;2023-01-28T14:43:51;22.15;;;13.10;;
22144;SDS011;11238;48.730;11.566;2023-01-28T14:46:31;21.63;;;12.95;;
22144;SDS011;11238;48.730;11.566;2023-01-28T14:49:29;21.58;;;12.90;;
22144;SDS011;11238;48.730;11.566;2023-01-28T14:57:54;25.77;;;14.13;;
22144;SDS011;11238;48.730;11.566;2023-01-28T15:00:30;25.88;;;13.02;;
22144;SDS011;11238;48.730;11.566;2023-01-28T15:02:59;22.33;;;12.38;;
22144;SDS011;11238;48.730;11.566;2023-01-28T15:07:58;21.63;;;12.07;;
22144;SDS011;11238;48.730;11.566;2023-01-28T15:10:32;22.90;;;13.13;;
22144;SDS011;11238;48.730;11.566;2023-01-28T15:13:08;23.27;;;12.38;;
22144;SDS011;11238;48.730;11.566;2023-01-28T15:15:40;22.77;;;12.80;;
22144;SDS011;11238;48.730;11.566;2023-01-28T15:18:11;20.77;;;12.48;;
22144;SDS011;11238;48.730;11.566;2023-01-28T15:20:46;22.27;;;12.40;;
22144;SDS011;11238;48.730;11.566;2023-01-28T15:23:33;23.15;;;12.68;;
22144;SDS011;11238;48.730;11.566;2023-01-28T15:26:05;21.55;;;12.38;;
22144;SDS011;11238;48.730;11.566;2023-01-28T15:28:33;24.67;;;13.77;;
22144;SDS011;11238;48.730;11.566;2023-01-28T15:31:03;21.30;;;12.25;;
22144;SDS011;11238;48.730;11.566;2023-01-28T15:34:13;23.13;;;13.18;;
22144;SDS011;11238;48.730;11.566;2023-01-28T15:36:39;20.13;;;12.13;;
22144;SDS011;11238;48.730;11.566;2023-01-28T15:39:19;23.13;;;13.23;;
22144;SDS011;11238;48.730;11.566;2023-01-28T15:41:56;24.38;;;13.57;;
22144;SDS011;11238;48.730;11.566;2023-01-28T15:44:47;23.85;;;13.40;;
22144;SDS011;11238;48.730;11.566;2023-01-28T15:47:24;21.67;;;12.50;;
22144;SDS011;11238;48.730;11.566;2023-01-28T15:49:56;24.67;;;13.20;;
22144;SDS011;11238;48.730;11.566;2023-01-28T15:52:33;25.15;;;13.63;;
22144;SDS011;11238;48.730;11.566;2023-01-28T15:57:51;23.75;;;13.27;;
22144;SDS011;11238;48.730;11.566;2023-01-28T16:00:18;25.65;;;13.32;;
22144;SDS011;11238;48.730;11.566;2023-01-28T16:02:52;24.15;;;13.38;;
22144;SDS011;11238;48.730;11.566;2023-01-28T16:05:36;21.33;;;12.32;;
22144;SDS011;11238;48.730;11.566;2023-01-28T16:08:08;22.13;;;12.85;;
22144;SDS011;11238;48.730;11.566;2023-01-28T16:10:39;21.65;;;12.40;;
22144;SDS011;11238;48.730;11.566;2023-01-28T16:13:05;22.70;;;12.20;;
22144;SDS011;11238;48.730;11.566;2023-01-28T16:15:44;17.77;;;11.52;;
22144;SDS011;11238;48.730;11.566;2023-01-28T16:18:18;23.40;;;11.88;;
22144;SDS011;11238;48.730;11.566;2023-01-28T16:20:53;18.90;;;11.45;;
22144;SDS011;11238;48.730;11.566;2023-01-28T16:23:21;20.67;;;12.05;;
22144;SDS011;11238;48.730;11.566;2023-01-28T16:26:00;22.02;;;11.80;;
22144;SDS011;11238;48.730;11.566;2023-01-28T16:28:30;21.10;;;11.65;;
22144;SDS011;11238;48.730;11.566;2023-01-28T16:30:57;24.63;;;12.32;;
22144;SDS011;11238;48.730;11.566;2023-01-28T16:33:24;17.90;;;11.73;;
22144;SDS011;11238;48.730;11.566;2023-01-28T16:39:36;17.58;;;10.30;;
22144;SDS011;11238;48.730;11.566;2023-01-28T16:42:14;13.63;;;9.55;;